Archival Weather

Vermilion Rgnl

Danville, Illinois (KDNV)

Report from: Tuesday, March 26, 2024 8:55 PM CDT
Current time: Sunday, July 14, 2024 5:23 AM CDT

Current weather – Weather history – Daily summaries
Weather forecast

Temperature4.6°C (40.3°F)
Wind chill0.1°C (32.2°F)
Dew point1.0°C (33.8°F)
Winds 13 kts (6.7 m/s, 15 mph) West-Southwest (250°)
Wind gusts 16 kts (8.2 m/s, 18.4 mph)
Visibility10 mi. (16.1 km)
Clouds Ceiling: Overcast 1,900 ft. (579 m)
Altimeter29.82 in.Hg (1010 mB)
Relative humidity77 %
Density altitude-1,042 ft. (-318 m)
Remarks Fully automated report
Automated weather observing station with precipitation discriminator
Flight conditions Marginal Visual Meteorological Conditions
Raw dataKDNV 270155Z AUTO 25013G16KT 10SM OVC019 05/01 A2982 RMK AO2 T00460010
An error has occurred. This application may no longer respond until reloaded. Reload 🗙